CPX219 Details

Departure: March Air Reserve Base (KRIV) at 0600 UTC
Arrival: Chicago/Rockford International Airport (KRFD) at 0920 UTC
Route: TRM J236 TBC J128 HBU J146 IOW RFD


Current Weather Information
KRIV 232343Z AUTO 25006KT 10SM FEW023 OVC036 15/11 A2999 RMK AO2 SLP153
KRFD 232254Z 27008KT 10SM FEW250 23/11 A3006 RMK AO2 SLP177 T02280111